Time;durP1;ratioP1;P1;durP2;ratioP2;P2;SDS_P1;SDS_P2;PMS_P1;PMS_P2;Temp;Humidity;BMP_temperature;BMP_pressure;BME280_temperature;BME280_humidity;BME280_pressure;Samples;Min_cycle;Max_cycle;Signal;HPM_P1;HPM_P2
2023/01/12 00:01:45;;;;;;;3.85;1.17;;;;;;;5.41;100.00;100407.34;5051725;28;20029;-77
2023/01/12 00:04:12;;;;;;;2.10;0.70;;;;;;;5.71;100.00;100451.88;5052412;28;20436;-76
2023/01/12 00:06:38;;;;;;;2.53;0.70;;;;;;;5.88;100.00;100460.31;5052532;28;20120;-76
2023/01/12 00:09:05;;;;;;;2.42;0.80;;;;;;;5.85;100.00;100463.69;5052653;28;20111;-76
2023/01/12 00:11:31;;;;;;;1.63;0.60;;;;;;;5.97;100.00;100472.91;5052965;28;20115;-75
2023/01/12 00:13:57;;;;;;;1.02;0.43;;;;;;;5.98;100.00;100459.47;5052557;28;20060;-78
2023/01/12 00:16:38;;;;;;;1.98;0.70;;;;;;;6.10;100.00;100467.03;5052587;28;20036;-76
2023/01/12 00:19:10;;;;;;;1.20;0.60;;;;;;;5.60;100.00;100377.94;5051983;28;20031;-74
2023/01/12 00:21:55;;;;;;;1.42;0.75;;;;;;;6.03;100.00;100445.16;5051645;28;20040;-74
2023/01/12 00:24:33;;;;;;;1.38;0.30;;;;;;;5.57;100.00;100375.41;5050548;28;20538;-73
2023/01/12 00:27:00;;;;;;;0.52;0.30;;;;;;;6.03;100.00;100440.09;5052719;28;20039;-75
2023/01/12 00:29:26;;;;;;;0.40;0.20;;;;;;;5.25;100.00;100312.44;5052411;28;20519;-75
2023/01/12 00:31:53;;;;;;;0.47;0.30;;;;;;;6.13;100.00;100450.19;5051687;28;20499;-73
2023/01/12 00:34:19;;;;;;;0.10;0.10;;;;;;;6.11;100.00;100453.53;5051621;28;20099;-75
2023/01/12 00:36:46;;;;;;;0.43;0.30;;;;;;;6.16;100.00;100461.13;5051788;28;20021;-76
2023/01/12 00:39:12;;;;;;;0.38;0.30;;;;;;;6.16;100.00;100464.44;5051762;28;20099;-75
2023/01/12 00:47:08;;;;;;;0.85;0.20;;;;;;;6.07;100.00;100472.06;5051663;28;20094;-74
2023/01/12 00:49:38;;;;;;;0.60;0.25;;;;;;;5.54;100.00;100370.38;5050354;28;20123;-74
2023/01/12 00:52:05;;;;;;;1.33;0.73;;;;;;;6.02;100.00;100466.19;5051733;28;20031;-74
2023/01/12 00:54:31;;;;;;;2.75;0.80;;;;;;;6.04;100.00;100446.84;5051511;28;20047;-75
2023/01/12 00:56:57;;;;;;;1.58;0.65;;;;;;;5.88;100.00;100451.06;5050047;28;20025;-75
2023/01/12 00:59:22;;;;;;;1.00;0.40;;;;;;;5.43;100.00;100387.22;5051861;28;20029;-75
2023/01/12 01:01:48;;;;;;;1.13;0.20;;;;;;;5.75;100.00;100440.94;5051891;28;20065;-78
2023/01/12 01:04:13;;;;;;;0.32;0.30;;;;;;;5.39;100.00;100385.53;5050879;28;20049;-78
2023/01/12 01:06:39;;;;;;;0.35;0.20;;;;;;;5.84;100.00;100461.16;5052166;28;20483;-78
2023/01/12 01:09:05;;;;;;;0.32;0.20;;;;;;;5.56;100.00;100404.00;5051314;28;20017;-78
2023/01/12 01:11:31;;;;;;;0.93;0.20;;;;;;;5.25;100.00;100368.72;5055170;28;20484;-77
2023/01/12 01:13:58;;;;;;;0.93;0.40;;;;;;;5.80;100.00;100450.19;5055911;28;20036;-77
2023/01/12 01:16:24;;;;;;;1.55;0.50;;;;;;;5.85;100.00;100467.88;5054508;28;20076;-77
2023/01/12 01:18:49;;;;;;;0.50;0.40;;;;;;;5.29;100.00;100377.09;5056024;28;20040;-76
2023/01/12 01:21:15;;;;;;;0.30;0.20;;;;;;;5.87;100.00;100458.63;5055949;28;20033;-75
2023/01/12 01:23:41;;;;;;;0.35;0.10;;;;;;;5.83;100.00;100455.28;5055290;28;20029;-77
2023/01/12 01:26:12;;;;;;;1.17;0.10;;;;;;;5.88;100.00;100462.84;5055814;28;20025;-77
2023/01/12 01:28:37;;;;;;;0.43;0.20;;;;;;;5.84;100.00;100456.13;5056409;28;20035;-77
2023/01/12 01:31:09;;;;;;;0.65;0.20;;;;;;;5.89;100.00;100460.31;5056352;28;20116;-77
2023/01/12 01:33:34;;;;;;;0.43;0.30;;;;;;;5.04;100.00;100330.09;5055805;28;20039;-76
2023/01/12 01:36:00;;;;;;;0.32;0.20;;;;;;;5.48;100.00;100398.13;5055461;28;20041;-74
2023/01/12 01:38:26;;;;;;;0.20;0.10;;;;;;;5.82;100.00;100448.50;5055585;28;20044;-76
2023/01/12 01:40:52;;;;;;;0.57;0.40;;;;;;;5.81;100.00;100441.78;5054743;28;20041;-76
2023/01/12 01:43:20;;;;;;;0.20;0.20;;;;;;;5.84;100.00;100451.91;5055575;28;20078;-76
2023/01/12 01:46:09;;;;;;;0.25;0.22;;;;;;;5.78;100.00;100435.91;5055635;28;20063;-75
2023/01/12 01:48:38;;;;;;;1.20;0.32;;;;;;;5.81;100.00;100439.28;5055395;28;20049;-76
2023/01/12 01:51:13;;;;;;;0.52;0.43;;;;;;;5.80;100.00;100435.06;5055521;28;20028;-76
2023/01/12 01:53:42;;;;;;;0.45;0.28;;;;;;;5.44;100.00;100366.19;5055428;28;20064;-77
2023/01/12 01:56:13;;;;;;;1.65;0.35;;;;;;;5.40;100.00;100364.50;5054171;28;20555;-75
2023/01/12 01:58:55;;;;;;;0.17;0.10;;;;;;;5.60;100.00;100370.38;5057053;28;20074;-75
2023/01/12 02:01:20;;;;;;;;;;;;;;;6.06;100.00;100451.03;5064034;28;20053;-75
2023/01/12 02:03:46;;;;;;;0.20;0.20;;;;;;;5.94;100.00;100448.53;5063332;28;19917;-76
2023/01/12 02:06:13;;;;;;;1.10;0.10;;;;;;;5.47;100.00;100399.78;5054035;28;20032;-74
2023/01/12 02:08:56;;;;;;;0.55;0.10;;;;;;;5.81;100.00;100456.06;5055073;28;20033;-75
2023/01/12 02:17:37;;;;;;;0.10;0.10;;;;;;;5.70;100.00;100453.59;5053596;28;20076;-75
2023/01/12 02:20:02;;;;;;;0.10;0.10;;;;;;;5.76;100.00;100452.75;5047405;28;20060;-75
2023/01/12 02:22:52;;;;;;;0.30;0.30;;;;;;;5.74;100.00;100464.50;5052913;28;20419;-74
2023/01/12 02:25:55;;;;;;;0.25;0.20;;;;;;;5.77;100.00;100469.53;5053329;28;20040;-75
2023/01/12 02:28:45;;;;;;;0.20;0.20;;;;;;;5.79;100.00;100467.84;5053412;28;20033;-77
2023/01/12 02:31:16;;;;;;;0.30;0.10;;;;;;;5.83;100.00;100459.44;5053988;28;20036;-74
2023/01/12 02:34:18;;;;;;;0.47;0.10;;;;;;;5.87;100.00;100464.53;5053179;28;20036;-74
2023/01/12 02:36:43;;;;;;;0.20;0.10;;;;;;;5.78;100.00;100479.66;5018373;28;21061;-75
2023/01/12 02:39:21;;;;;;;0.30;0.30;;;;;;;5.80;100.00;100472.06;5051706;28;20101;-75
2023/01/12 02:44:37;;;;;;;0.20;0.20;;;;;;;5.76;100.00;100461.16;5052433;28;20052;-73
2023/01/12 02:47:07;;;;;;;0.20;0.20;;;;;;;5.69;100.00;100466.19;5052543;28;20029;-74
2023/01/12 02:49:42;;;;;;;0.20;0.20;;;;;;;5.00;100.00;100346.91;5052163;28;20035;-73
2023/01/12 02:52:13;;;;;;;0.30;0.20;;;;;;;5.71;100.00;100459.44;5051707;28;20029;-75
2023/01/12 02:54:41;;;;;;;0.57;0.30;;;;;;;5.16;100.00;100371.25;5052884;28;20029;-75
2023/01/12 02:57:09;;;;;;;0.43;0.40;;;;;;;5.16;100.00;100383.00;5053257;28;20506;-74
2023/01/12 02:59:40;;;;;;;0.28;0.28;;;;;;;5.34;100.00;100403.16;5052424;28;20035;-74
2023/01/12 03:02:13;;;;;;;1.20;0.20;;;;;;;5.78;100.00;100472.06;5042043;28;20025;-74
2023/01/12 03:04:40;;;;;;;0.77;0.30;;;;;;;5.75;100.00;100459.47;4988222;28;1262206;-74
2023/01/12 03:07:21;;;;;;;0.45;0.28;;;;;;;5.84;100.00;100466.22;5032089;28;20041;-74
2023/01/12 03:09:51;;;;;;;0.70;0.57;;;;;;;5.69;100.00;100444.31;5033153;28;20052;-73
2023/01/12 03:12:21;;;;;;;0.75;0.50;;;;;;;5.35;100.00;100373.78;5032353;28;20021;-73
2023/01/12 03:14:48;;;;;;;0.50;0.40;;;;;;;5.84;100.00;100446.84;5032836;28;20036;-75
2023/01/12 03:17:25;;;;;;;1.38;0.85;;;;;;;5.20;100.00;100342.69;5034140;28;20037;-74
2023/01/12 03:19:53;;;;;;;1.40;0.93;;;;;;;5.47;100.00;100389.72;5032810;28;20128;-77
2023/01/12 03:22:21;;;;;;;0.57;0.43;;;;;;;5.86;100.00;100465.34;5032216;28;20052;-75
2023/01/12 03:24:53;;;;;;;0.68;0.40;;;;;;;5.49;100.00;100400.63;5033264;28;20017;-76
2023/01/12 03:27:35;;;;;;;0.52;0.40;;;;;;;5.56;100.00;100434.25;5065936;28;20029;-77
2023/01/12 03:30:09;;;;;;;0.30;0.30;;;;;;;5.69;100.00;100459.47;5033280;28;20029;-75
2023/01/12 03:32:34;;;;;;;0.55;0.55;;;;;;;5.68;100.00;100460.31;5032457;28;20500;-75
2023/01/12 03:35:00;;;;;;;0.90;0.50;;;;;;;5.74;100.00;100470.41;5032886;28;20037;-76
2023/01/12 03:37:31;;;;;;;0.60;0.52;;;;;;;5.73;100.00;100468.72;5032836;28;20084;-75
2023/01/12 03:40:08;;;;;;;0.73;0.50;;;;;;;5.28;100.00;100413.25;5032153;28;20060;-75
2023/01/12 03:42:49;;;;;;;0.82;0.70;;;;;;;5.65;100.00;100479.63;5033091;28;20026;-75
2023/01/12 03:45:26;;;;;;;0.43;0.43;;;;;;;5.65;100.00;100484.66;5032902;28;20117;-75
2023/01/12 03:48:01;;;;;;;0.65;0.50;;;;;;;5.67;100.00;100483.84;5031449;28;20072;-74
2023/01/12 03:50:34;;;;;;;0.85;0.52;;;;;;;5.60;100.00;100469.56;5031410;28;20042;-75
2023/01/12 03:53:01;;;;;;;0.80;0.50;;;;;;;5.69;100.00;100486.34;5032926;28;20029;-75
2023/01/12 03:55:28;;;;;;;1.00;0.52;;;;;;;5.61;100.00;100475.41;5032917;28;20098;-75
2023/01/12 03:57:55;;;;;;;1.67;0.60;;;;;;;5.36;100.00;100449.38;5032404;28;20388;-74
2023/01/12 04:00:23;;;;;;;1.67;0.60;;;;;;;5.51;100.00;100476.25;5032485;28;20030;-75
2023/01/12 04:02:48;;;;;;;0.57;0.50;;;;;;;5.45;100.00;100492.22;5032500;28;20033;-76
2023/01/12 04:05:14;;;;;;;1.38;0.68;;;;;;;5.56;100.00;100504.84;5032345;28;20042;-75
2023/01/12 04:07:40;;;;;;;1.02;0.80;;;;;;;5.44;100.00;100500.66;5032871;28;20030;-77
2023/01/12 04:10:06;;;;;;;2.70;1.70;;;;;;;5.36;100.00;100497.28;5032862;28;20079;-76
2023/01/12 04:12:31;;;;;;;2.15;1.60;;;;;;;5.40;100.00;100500.63;5032973;28;20060;-75
2023/01/12 04:14:57;;;;;;;1.75;1.40;;;;;;;5.12;100.00;100444.31;5032636;28;20500;-77
2023/01/12 04:17:24;;;;;;;5.50;3.22;;;;;;;5.44;100.00;100505.69;5032456;28;20034;-75
2023/01/12 04:19:50;;;;;;;5.88;3.40;;;;;;;5.45;100.00;100499.78;5032454;28;20494;-75
2023/01/12 04:25:00;;;;;;;5.05;2.67;;;;;;;5.00;100.00;100427.50;5032877;28;20120;-76
2023/01/12 04:27:26;;;;;;;8.00;3.63;;;;;;;5.61;100.00;100495.59;5032522;28;20490;-76
2023/01/12 04:29:52;;;;;;;1.15;0.80;;;;;;;5.65;100.00;100500.66;5032355;28;20038;-76
2023/01/12 04:32:17;;;;;;;3.42;1.83;;;;;;;5.54;100.00;100517.47;5033283;28;20033;-75
2023/01/12 04:34:42;;;;;;;3.85;1.33;;;;;;;5.70;100.00;100496.47;5052149;28;20037;-73
2023/01/12 04:37:08;;;;;;;3.25;1.42;;;;;;;6.90;100.00;100495.34;5052465;28;20455;-76
2023/01/12 04:39:33;;;;;;;3.33;1.55;;;;;;;5.57;100.00;100502.31;5052026;28;20510;-73
2023/01/12 04:41:59;;;;;;;1.10;0.75;;;;;;;5.40;100.00;100491.41;5051497;28;20061;-75
2023/01/12 04:44:24;;;;;;;1.48;1.05;;;;;;;4.91;100.00;100424.13;5051795;28;20040;-73
2023/01/12 04:46:50;;;;;;;2.38;1.00;;;;;;;4.92;100.00;100405.66;5049121;28;20029;-75
2023/01/12 04:49:16;;;;;;;1.70;1.40;;;;;;;5.06;100.00;100435.06;5052891;28;20040;-75
2023/01/12 04:51:41;;;;;;;0.82;0.60;;;;;;;5.56;100.00;100515.78;5051841;28;20411;-76
2023/01/12 04:54:09;;;;;;;1.13;0.82;;;;;;;4.80;100.00;100411.50;5051791;28;20033;-84
2023/01/12 04:56:34;;;;;;;1.90;1.20;;;;;;;5.43;100.00;100510.75;5050967;28;20025;-81
2023/01/12 04:59:00;;;;;;;0.80;0.60;;;;;;;5.39;100.00;100511.56;5050683;28;20033;-76
2023/01/12 05:01:27;;;;;;;1.00;0.90;;;;;;;5.43;100.00;100519.13;5051679;28;20503;-76
2023/01/12 05:03:59;;;;;;;0.70;0.50;;;;;;;5.44;100.00;100517.44;5051966;28;20121;-77
2023/01/12 05:06:25;;;;;;;1.17;0.73;;;;;;;4.92;100.00;100434.19;5051675;28;20499;-76
2023/01/12 05:11:36;;;;;;;1.88;1.20;;;;;;;5.35;100.00;100522.47;5051242;28;20552;-76
2023/01/12 05:14:02;;;;;;;7.97;4.30;;;;;;;5.43;100.00;100514.06;5051044;28;20025;-73
2023/01/12 05:16:28;;;;;;;1.63;1.00;;;;;;;5.55;100.00;100533.41;5050613;28;20029;-71
2023/01/12 05:18:54;;;;;;;1.95;1.20;;;;;;;5.06;100.00;100462.78;5049398;28;20033;-73
2023/01/12 05:21:21;;;;;;;1.90;1.17;;;;;;;5.13;100.00;100461.94;5051230;28;20059;-75
2023/01/12 05:23:47;;;;;;;3.25;1.90;;;;;;;5.50;100.00;100523.34;5051476;28;20494;-75
2023/01/12 05:26:13;;;;;;;2.03;1.55;;;;;;;5.01;100.00;100463.63;5050988;28;20033;-74
2023/01/12 05:28:39;;;;;;;1.88;1.40;;;;;;;5.14;100.00;100452.72;5051236;28;20032;-75
2023/01/12 05:31:07;;;;;;;1.40;0.80;;;;;;;4.58;100.00;100392.16;5051088;28;20034;-74
2023/01/12 05:33:33;;;;;;;1.73;1.10;;;;;;;5.10;100.00;100469.50;5049831;28;20037;-74
2023/01/12 05:36:02;;;;;;;1.80;1.25;;;;;;;5.09;100.00;100475.38;5048236;28;20521;-73
2023/01/12 05:38:28;;;;;;;1.63;1.00;;;;;;;5.42;100.00;100532.56;5050222;28;20108;-72
2023/01/12 05:40:53;;;;;;;1.75;1.10;;;;;;;5.60;100.00;100521.66;5050474;28;20477;-72
2023/01/12 05:46:04;;;;;;;2.95;0.90;;;;;;;5.55;100.00;100529.22;5051074;28;20087;-74
2023/01/12 05:48:31;;;;;;;4.10;1.38;;;;;;;6.82;100.00;100531.59;5050245;28;20249;-76
2023/01/12 05:51:04;;;;;;;3.00;1.35;;;;;;;5.80;100.00;100540.19;5048142;28;20115;-74
2023/01/12 05:53:30;;;;;;;1.10;0.85;;;;;;;5.48;100.00;100524.19;5040180;28;20036;-73
2023/01/12 05:55:56;;;;;;;1.38;0.85;;;;;;;5.32;100.00;100500.63;5048556;28;20032;-73
2023/01/12 05:58:22;;;;;;;1.20;0.98;;;;;;;5.24;100.00;100484.66;5053283;28;20040;-76
2023/01/12 06:00:47;;;;;;;4.03;1.73;;;;;;;5.41;100.00;100525.00;5053906;28;20050;-76
2023/01/12 06:03:13;;;;;;;2.58;1.83;;;;;;;5.43;100.00;100528.38;5054284;28;20056;-75
2023/01/12 06:05:38;;;;;;;1.23;0.90;;;;;;;5.41;100.00;100537.63;5053667;28;20036;-76
2023/01/12 06:08:03;;;;;;;1.90;1.05;;;;;;;5.44;100.00;100528.38;5054543;28;20031;-73
2023/01/12 06:10:29;;;;;;;1.75;1.10;;;;;;;5.47;100.00;100535.94;5054450;28;20395;-74
2023/01/12 06:15:38;;;;;;;1.38;0.82;;;;;;;5.35;100.00;100515.75;5053569;28;20040;-73
2023/01/12 06:18:04;;;;;;;1.20;0.80;;;;;;;5.33;100.00;100524.16;5053571;28;20025;-73
2023/01/12 06:20:30;;;;;;;3.40;0.80;;;;;;;5.50;100.00;100525.88;5052518;28;20036;-72
2023/01/12 06:23:00;;;;;;;1.60;0.90;;;;;;;5.38;100.00;100532.56;5052380;28;20468;-71
2023/01/12 06:25:25;;;;;;;1.17;0.80;;;;;;;5.09;100.00;100498.06;5053594;28;20036;-74
2023/01/12 06:27:51;;;;;;;2.15;1.23;;;;;;;5.07;100.00;100476.22;5053593;28;20428;-74
2023/01/12 06:30:16;;;;;;;2.28;1.23;;;;;;;5.49;100.00;100539.28;5052343;28;20025;-73
2023/01/12 06:32:42;;;;;;;1.80;1.17;;;;;;;5.11;100.00;100490.53;5053366;28;20107;-73
2023/01/12 06:35:08;;;;;;;1.20;0.90;;;;;;;5.32;100.00;100533.41;5054199;28;20464;-73
2023/01/12 06:37:33;;;;;;;1.38;0.70;;;;;;;5.40;100.00;100539.28;5052530;28;20033;-73
2023/01/12 06:39:59;;;;;;;1.50;0.90;;;;;;;5.51;100.00;100567.03;5053606;28;20025;-72
2023/01/12 06:42:27;;;;;;;2.30;1.40;;;;;;;5.14;100.00;100501.44;5085880;28;20476;-73
2023/01/12 06:44:55;;;;;;;2.58;1.70;;;;;;;5.22;100.00;100509.00;5053612;28;20024;-74
2023/01/12 06:47:21;;;;;;;5.43;3.05;;;;;;;5.45;100.00;100557.78;5053382;28;20033;-74
2023/01/12 06:49:46;;;;;;;12.57;8.63;;;;;;;5.55;100.00;100556.09;5053418;28;20039;-74
2023/01/12 06:52:12;;;;;;;3.33;2.35;;;;;;;5.06;100.00;100480.41;5053105;28;20037;-73
2023/01/12 06:54:38;;;;;;;2.78;1.85;;;;;;;5.59;100.00;100548.56;5053159;28;20029;-74
2023/01/12 06:57:03;;;;;;;2.55;1.60;;;;;;;4.88;100.00;100432.50;5052422;28;20040;-73
2023/01/12 06:59:28;;;;;;;1.50;1.20;;;;;;;4.35;100.00;100364.41;5056317;28;20085;-72
2023/01/12 07:01:54;;;;;;;1.90;1.60;;;;;;;5.19;100.00;100491.34;5055400;28;20499;-72
2023/01/12 07:04:19;;;;;;;1.20;0.82;;;;;;;5.28;100.00;100506.50;5053084;28;20080;-72
2023/01/12 07:06:47;;;;;;;2.42;1.15;;;;;;;5.59;100.00;100570.41;5051395;28;20115;-73
2023/01/12 07:09:12;;;;;;;3.55;1.08;;;;;;;4.83;100.00;100445.94;5051339;28;20079;-72
2023/01/12 07:11:37;;;;;;;2.95;2.00;;;;;;;5.13;100.00;100484.63;5052535;28;20482;-73
2023/01/12 07:14:03;;;;;;;3.95;1.85;;;;;;;5.70;100.00;100571.28;5052964;28;20033;-73
2023/01/12 07:16:28;;;;;;;2.10;1.30;;;;;;;5.57;100.00;100569.56;5052748;28;20075;-72
2023/01/12 07:18:54;;;;;;;1.55;1.05;;;;;;;5.27;100.00;100514.88;5053137;28;20032;-73
2023/01/12 07:21:20;;;;;;;1.77;1.15;;;;;;;5.65;100.00;100583.88;5051207;28;20074;-73
2023/01/12 07:23:46;;;;;;;3.05;1.60;;;;;;;5.68;100.00;100585.56;5051548;28;20091;-72
2023/01/12 07:26:12;;;;;;;1.98;1.35;;;;;;;5.37;100.00;100513.25;5052586;28;20036;-73
2023/01/12 07:28:37;;;;;;;2.28;1.30;;;;;;;5.77;100.00;100565.38;5052105;28;20029;-72
2023/01/12 07:31:05;;;;;;;3.35;1.58;;;;;;;5.81;100.00;100597.34;5052090;28;20457;-72
2023/01/12 07:33:31;;;;;;;1.88;1.33;;;;;;;5.84;100.00;100598.22;5052824;28;20505;-72
2023/01/12 07:35:58;;;;;;;2.03;1.23;;;;;;;5.37;100.00;100520.81;5052604;28;20515;-73
2023/01/12 07:38:25;;;;;;;2.58;1.85;;;;;;;5.44;100.00;100540.97;5051322;28;20025;-73
2023/01/12 07:40:50;;;;;;;2.65;1.77;;;;;;;6.05;100.00;100604.97;5052751;28;20100;-73
2023/01/12 07:43:17;;;;;;;1.20;1.00;;;;;;;5.25;100.00;100499.78;5052649;28;20041;-73
2023/01/12 07:45:46;;;;;;;2.60;1.20;;;;;;;5.42;100.00;100514.94;5052348;28;20029;-74
2023/01/12 07:48:11;;;;;;;3.00;1.70;;;;;;;5.15;100.00;100472.06;5052299;28;20029;-73
2023/01/12 07:50:37;;;;;;;3.47;2.38;;;;;;;5.95;100.00;100605.78;5052213;28;20135;-72
2023/01/12 07:53:03;;;;;;;1.75;1.20;;;;;;;5.61;100.00;100544.34;5052320;28;20051;-73
2023/01/12 07:55:30;;;;;;;4.40;2.85;;;;;;;5.99;100.00;100615.06;5052065;28;20093;-73
2023/01/12 07:58:02;;;;;;;4.55;3.13;;;;;;;6.02;100.00;100622.66;5051677;28;20538;-73
2023/01/12 08:00:28;;;;;;;5.38;4.00;;;;;;;5.51;100.00;100535.09;5050541;28;20491;-72
2023/01/12 08:03:01;;;;;;;4.63;3.13;;;;;;;5.45;100.00;100536.78;5051884;28;20059;-73
2023/01/12 08:05:27;;;;;;;4.18;1.95;;;;;;;5.90;100.00;100620.09;5050885;28;20114;-73
2023/01/12 08:07:52;;;;;;;3.95;2.80;;;;;;;5.78;100.00;100597.34;5052314;28;20087;-72
2023/01/12 08:10:18;;;;;;;2.35;1.60;;;;;;;5.38;100.00;100535.06;5051056;28;20135;-73
2023/01/12 08:12:43;;;;;;;5.03;3.28;;;;;;;5.64;100.00;100576.31;5051619;28;20029;-71
2023/01/12 08:15:09;;;;;;;2.97;2.13;;;;;;;5.21;100.00;100503.13;5051813;28;20056;-73
2023/01/12 08:17:47;;;;;;;3.85;1.80;;;;;;;5.16;100.00;100511.50;5050919;28;20036;-73
2023/01/12 08:20:17;;;;;;;5.13;3.15;;;;;;;5.68;100.00;100566.25;5051542;28;20029;-73
2023/01/12 08:22:45;;;;;;;4.25;3.08;;;;;;;6.05;100.00;100647.88;5052013;28;20045;-72
2023/01/12 08:25:18;;;;;;;3.90;2.95;;;;;;;5.91;100.00;100615.06;5051667;28;20116;-73
2023/01/12 08:27:49;;;;;;;3.08;2.13;;;;;;;6.08;100.00;100653.75;5051483;28;20055;-72
2023/01/12 08:30:18;;;;;;;6.15;3.67;;;;;;;5.98;100.00;100652.06;5052054;28;20084;-73
2023/01/12 08:32:43;;;;;;;3.58;2.50;;;;;;;6.03;100.00;100649.53;5051803;28;20040;-73
2023/01/12 08:35:13;;;;;;;2.55;1.88;;;;;;;5.35;100.00;100523.31;5051658;28;20029;-73
2023/01/12 08:37:38;;;;;;;3.30;2.28;;;;;;;6.16;100.00;100666.38;5051260;28;20102;-73
2023/01/12 08:40:05;;;;;;;3.38;2.30;;;;;;;6.04;100.00;100636.09;5051900;28;20029;-73
2023/01/12 08:42:30;;;;;;;5.40;3.33;;;;;;;5.57;100.00;100556.94;5051251;28;20025;-72
2023/01/12 08:44:55;;;;;;;7.13;4.85;;;;;;;6.00;100.00;100640.28;5050252;28;20487;-71
2023/01/12 08:47:27;;;;;;;3.40;1.73;;;;;;;6.11;100.00;100661.34;5050316;28;20025;-72
2023/01/12 08:49:58;;;;;;;3.90;2.58;;;;;;;5.61;100.00;100582.19;5050898;28;20029;-72
2023/01/12 08:52:24;;;;;;;2.00;1.30;;;;;;;6.07;100.00;100646.19;5051125;28;20041;-73
2023/01/12 08:54:49;;;;;;;5.25;3.08;;;;;;;6.04;100.00;100624.31;5051272;28;20271;-73
2023/01/12 08:57:15;;;;;;;7.32;5.55;;;;;;;5.71;100.00;100575.47;5050066;28;20622;-73
2023/01/12 08:59:41;;;;;;;6.07;4.18;;;;;;;6.11;100.00;100628.53;5051358;28;20040;-72
2023/01/12 09:02:10;;;;;;;3.95;2.40;;;;;;;6.31;100.00;100661.34;5050326;28;20124;-73
2023/01/12 09:04:38;;;;;;;7.05;3.85;;;;;;;6.38;100.00;100652.09;5051168;28;21691;-72
2023/01/12 09:07:03;;;;;;;4.63;3.00;;;;;;;5.88;100.00;100592.31;5050087;28;20025;-72
2023/01/12 09:09:29;;;;;;;4.25;3.03;;;;;;;6.29;100.00;100642.00;5049924;28;20047;-73
2023/01/12 09:11:54;;;;;;;7.68;4.40;;;;;;;6.09;100.00;100599.06;5050905;28;20028;-72
2023/01/12 09:14:20;;;;;;;7.43;4.90;;;;;;;5.99;100.00;100564.59;5050960;28;20029;-73
2023/01/12 09:16:45;;;;;;;4.47;2.67;;;;;;;6.41;100.00;100654.59;5051138;28;20078;-73
2023/01/12 09:19:11;;;;;;;4.55;2.67;;;;;;;6.00;100.00;100589.00;5051385;28;20391;-73
2023/01/12 09:21:38;;;;;;;2.55;1.70;;;;;;;6.41;100.00;100657.13;5050781;28;20029;-73
2023/01/12 09:24:04;;;;;;;4.97;2.95;;;;;;;6.24;100.00;100599.06;5051286;28;20037;-73
2023/01/12 09:26:34;;;;;;;5.80;3.25;;;;;;;6.11;100.00;100578.06;5051170;28;20411;-74
2023/01/12 09:29:03;;;;;;;4.78;3.10;;;;;;;6.09;100.00;100576.38;5051107;28;20574;-74
2023/01/12 09:31:31;;;;;;;6.10;3.53;;;;;;;6.49;100.00;100656.31;5052197;28;20483;-74
2023/01/12 09:33:57;;;;;;;4.38;3.05;;;;;;;6.07;100.00;100566.28;5053564;28;20036;-73
2023/01/12 09:36:25;;;;;;;4.18;1.98;;;;;;;6.44;100.00;100642.81;5054964;28;20144;-74
2023/01/12 09:38:52;;;;;;;1.40;1.00;;;;;;;6.51;100.00;100647.03;5054892;28;20036;-74
2023/01/12 09:47:39;;;;;;;7.63;4.10;;;;;;;6.57;100.00;100644.50;5054884;28;20048;-73
2023/01/12 09:50:09;;;;;;;4.93;2.88;;;;;;;6.57;100.00;100641.97;5054361;28;20039;-73
2023/01/12 09:53:06;;;;;;;2.65;1.90;;;;;;;6.58;100.00;100636.06;5053399;28;20064;-73
2023/01/12 09:55:56;;;;;;;2.13;1.70;;;;;;;6.45;100.00;100604.13;5047303;28;20052;-73
2023/01/12 09:58:33;;;;;;;3.50;2.60;;;;;;;6.59;100.00;100630.19;5054079;28;20028;-73
2023/01/12 10:01:05;;;;;;;1.88;1.13;;;;;;;6.54;100.00;100624.28;5054335;28;20052;-73
2023/01/12 10:03:34;;;;;;;;;;;;;;;6.66;100.00;100631.84;5054891;28;20049;-74
2023/01/12 10:06:00;;;;;;;7.20;3.95;;;;;;;6.44;100.00;100615.03;5054513;28;19914;-73
2023/01/12 10:08:34;;;;;;;6.30;3.47;;;;;;;6.62;100.00;100632.69;5054008;28;20479;-73
2023/01/12 10:11:15;;;;;;;3.88;1.58;;;;;;;6.55;100.00;100631.03;5054273;28;20025;-74
2023/01/12 10:14:03;;;;;;;3.55;2.35;;;;;;;6.09;100.00;100535.97;5054288;28;20029;-76
2023/01/12 10:16:40;;;;;;;3.97;2.03;;;;;;;6.48;100.00;100623.44;5054540;28;20035;-74
2023/01/12 10:19:20;;;;;;;2.80;2.00;;;;;;;6.58;100.00;100620.91;5052685;28;20042;-74
2023/01/12 10:21:52;;;;;;;4.25;1.40;;;;;;;5.87;100.00;100497.31;5054430;28;20021;-74
2023/01/12 10:24:20;;;;;;;2.50;1.80;;;;;;;6.53;100.00;100594.84;5053776;28;20115;-74
2023/01/12 10:26:55;;;;;;;2.97;1.83;;;;;;;6.62;100.00;100604.06;5054095;28;20047;-75
2023/01/12 10:29:21;;;;;;;6.20;2.97;;;;;;;6.49;100.00;100567.06;5053911;28;20036;-76
2023/01/12 10:31:46;;;;;;;2.08;1.45;;;;;;;6.21;100.00;100561.22;5053841;28;20059;-77
2023/01/12 10:34:12;;;;;;;2.97;1.30;;;;;;;6.74;100.00;100619.19;4701237;28;10000214;-75
2023/01/12 10:36:42;;;;;;;2.03;1.50;;;;;;;6.28;100.00;100550.25;5049692;28;20075;-73
2023/01/12 10:39:31;;;;;;;2.90;1.92;;;;;;;5.80;100.00;100484.69;5050024;28;20052;-73
2023/01/12 10:45:15;;;;;;;2.45;1.80;;;;;;;6.72;100.00;100605.72;5050656;28;20431;-75
2023/01/12 10:47:42;;;;;;;3.55;2.38;;;;;;;5.90;100.00;100486.38;5052510;28;20468;-71
2023/01/12 10:50:30;;;;;;;2.60;1.60;;;;;;;7.21;100.00;100619.88;5052568;28;20564;-77
2023/01/12 10:53:10;;;;;;;2.47;1.63;;;;;;;6.61;100.00;100516.53;5052526;28;20029;-73
2023/01/12 10:55:39;;;;;;;1.45;1.02;;;;;;;6.46;100.00;100530.03;5053105;28;20806;-74
2023/01/12 10:58:35;;;;;;;2.90;1.60;;;;;;;6.71;100.00;100592.28;5053275;28;20040;-73
2023/01/12 11:01:01;;;;;;;2.40;1.73;;;;;;;6.87;100.00;100600.66;5052700;28;20045;-72
2023/01/12 11:03:31;;;;;;;3.38;2.22;;;;;;;6.72;100.00;100528.25;5051779;28;20404;-74
2023/01/12 11:06:19;;;;;;;3.33;2.40;;;;;;;6.99;100.00;100609.03;5052772;28;20033;-73
2023/01/12 11:08:44;;;;;;;3.40;2.78;;;;;;;6.31;100.00;100468.63;5052150;28;20029;-73
2023/01/12 11:11:15;;;;;;;6.63;5.20;;;;;;;6.63;100.00;100537.56;5052730;28;20029;-73
2023/01/12 11:13:40;;;;;;;5.90;4.60;;;;;;;6.59;100.00;100506.44;5052732;28;20045;-73
2023/01/12 11:16:16;;;;;;;6.20;4.03;;;;;;;7.23;100.00;100603.03;5052408;28;20045;-73
2023/01/12 11:19:02;;;;;;;8.15;5.38;;;;;;;6.72;100.00;100515.63;5052555;28;20051;-73
2023/01/12 11:21:33;;;;;;;11.57;6.78;;;;;;;6.76;100.00;100513.94;5052449;28;20043;-73
2023/01/12 11:24:26;;;;;;;5.00;3.25;;;;;;;7.29;100.00;100597.94;5052569;28;20036;-73
2023/01/12 11:27:03;;;;;;;6.00;2.72;;;;;;;7.21;100.00;100579.44;5052555;28;20021;-74
2023/01/12 11:29:43;;;;;;;3.15;2.00;;;;;;;7.16;100.00;100562.63;5051185;28;20032;-74
2023/01/12 11:32:21;;;;;;;3.58;2.38;;;;;;;7.23;100.00;100589.56;5052596;28;20066;-74
2023/01/12 11:34:58;;;;;;;4.78;3.22;;;;;;;6.97;100.00;100534.06;5052490;28;20036;-75
2023/01/12 11:37:23;;;;;;;5.93;3.83;;;;;;;7.23;100.00;100592.91;5052888;28;20090;-74
2023/01/12 11:39:56;;;;;;;5.00;3.53;;;;;;;7.07;100.00;100527.28;5052524;28;20411;-71
2023/01/12 11:45:16;;;;;;;4.25;2.92;;;;;;;7.42;100.00;100584.41;5052342;28;20078;-74
2023/01/12 11:47:51;;;;;;;6.57;3.90;;;;;;;7.08;100.00;100524.75;5050780;28;20033;-74
2023/01/12 11:50:32;;;;;;;13.10;6.47;;;;;;;7.54;100.00;100571.69;5052723;28;20128;-74
2023/01/12 11:52:57;;;;;;;11.73;5.43;;;;;;;7.44;100.00;100554.03;5052514;28;20411;-74
2023/01/12 11:55:39;;;;;;;8.13;4.93;;;;;;;7.37;100.00;100573.44;5051776;28;20029;-74
2023/01/12 11:58:41;;;;;;;6.93;4.00;;;;;;;7.51;100.00;100561.56;5051618;28;20033;-74
2023/01/12 12:01:29;;;;;;;8.77;5.40;;;;;;;7.28;100.00;100529.69;5050775;28;20039;-73
2023/01/12 12:04:03;;;;;;;11.00;6.78;;;;;;;7.15;100.00;100485.09;5051912;28;20060;-73
2023/01/12 12:06:35;;;;;;;7.90;4.82;;;;;;;7.55;100.00;100547.22;5050392;28;20040;-73
2023/01/12 12:09:17;;;;;;;8.85;5.45;;;;;;;6.86;100.00;100415.34;5051589;28;20071;-73
2023/01/12 12:12:09;;;;;;;4.88;3.30;;;;;;;7.72;100.00;100553.00;5050751;28;20056;-74
2023/01/12 12:14:58;;;;;;;12.23;7.00;;;;;;;7.72;100.00;100553.00;5051951;28;20110;-73